createdAt,value
2017-09-21T00:00:30.170Z,79.90
2017-09-21T00:02:58.455Z,79.70
2017-09-21T00:05:26.714Z,79.70
2017-09-21T00:07:54.206Z,79.70
2017-09-21T00:10:21.721Z,79.70
2017-09-21T00:12:49.218Z,79.80
2017-09-21T00:15:16.710Z,79.70
2017-09-21T00:17:44.222Z,79.90
2017-09-21T00:20:12.473Z,80.70
2017-09-21T00:22:39.967Z,80.70
2017-09-21T00:25:07.497Z,80.80
2017-09-21T00:27:35.029Z,80.50
2017-09-21T00:30:02.524Z,80.60
2017-09-21T00:32:30.782Z,80.70
2017-09-21T00:34:58.274Z,80.60
2017-09-21T00:37:25.792Z,80.40
2017-09-21T00:39:53.286Z,80.30
2017-09-21T00:42:21.548Z,81.20
2017-09-21T00:44:49.827Z,81.50
2017-09-21T00:47:18.082Z,81.60
2017-09-21T00:49:45.599Z,81.60
2017-09-21T00:52:13.090Z,81.70
2017-09-21T00:54:40.603Z,81.80
2017-09-21T00:57:08.126Z,82.10
2017-09-21T00:59:36.381Z,82.30
2017-09-21T01:02:03.870Z,82.30
2017-09-21T01:04:32.147Z,82.20
2017-09-21T01:07:00.404Z,82.00
2017-09-21T01:09:27.914Z,82.00
2017-09-21T01:11:55.406Z,81.70
2017-09-21T01:14:22.907Z,81.90
2017-09-21T01:16:50.426Z,81.90
2017-09-21T01:19:17.918Z,81.80
2017-09-21T01:21:46.178Z,81.20
2017-09-21T01:24:13.694Z,81.10
2017-09-21T01:26:41.186Z,81.00
2017-09-21T01:29:08.701Z,81.40
2017-09-21T01:31:36.210Z,82.00
2017-09-21T01:34:04.469Z,82.10
2017-09-21T01:36:31.993Z,82.10
2017-09-21T01:38:59.485Z,82.10
2017-09-21T01:41:26.989Z,81.90
2017-09-21T01:43:54.510Z,81.80
2017-09-21T01:46:22.006Z,81.70
2017-09-21T01:48:49.523Z,81.30
2017-09-21T01:51:17.028Z,81.20
2017-09-21T01:53:44.522Z,80.90
2017-09-21T01:56:12.038Z,80.70
2017-09-21T01:58:39.529Z,80.60
2017-09-21T02:01:07.019Z,80.40
2017-09-21T02:03:34.542Z,80.40
2017-09-21T02:06:02.029Z,80.40
2017-09-21T02:08:29.542Z,80.40
2017-09-21T02:10:57.038Z,80.40
2017-09-21T02:13:24.542Z,82.30
2017-09-21T02:15:52.062Z,82.30
2017-09-21T02:18:19.557Z,83.70
2017-09-21T02:20:47.816Z,84.70
2017-09-21T02:23:15.351Z,84.70
2017-09-21T02:25:42.854Z,85.30
2017-09-21T02:28:10.390Z,86.00
2017-09-21T02:30:37.934Z,86.50
2017-09-21T02:33:05.460Z,86.80
2017-09-21T02:35:32.990Z,86.70
2017-09-21T02:38:00.508Z,86.70
2017-09-21T02:40:28.006Z,86.60
2017-09-21T02:42:55.519Z,86.40
2017-09-21T02:45:23.006Z,86.40
2017-09-21T02:47:51.262Z,86.20
2017-09-21T02:50:18.775Z,86.20
2017-09-21T02:52:46.265Z,85.80
2017-09-21T02:55:13.773Z,86.00
2017-09-21T02:57:41.274Z,85.80
2017-09-21T03:00:08.770Z,85.70
2017-09-21T03:02:36.303Z,85.80
2017-09-21T03:05:03.797Z,85.40
2017-09-21T03:07:32.063Z,85.30
2017-09-21T03:09:59.604Z,85.20
2017-09-21T03:12:27.139Z,85.00
2017-09-21T03:14:54.666Z,83.70
2017-09-21T03:17:22.173Z,83.10
2017-09-21T03:19:49.681Z,82.90
2017-09-21T03:22:17.221Z,82.80
2017-09-21T03:24:44.728Z,82.20
2017-09-21T03:27:12.243Z,82.10
2017-09-21T03:29:39.770Z,82.40
2017-09-21T03:32:07.279Z,82.90
2017-09-21T03:34:34.796Z,83.00
2017-09-21T03:37:02.290Z,83.00
2017-09-21T03:39:29.787Z,83.70
2017-09-21T03:41:57.318Z,84.50
2017-09-21T03:44:24.810Z,84.40
2017-09-21T03:46:52.329Z,84.70
2017-09-21T03:49:19.830Z,84.90
2017-09-21T03:51:47.347Z,85.00
2017-09-21T03:54:14.863Z,85.20
2017-09-21T03:56:42.362Z,85.40
2017-09-21T03:59:09.886Z,85.80
2017-09-21T04:01:38.154Z,86.40
2017-09-21T04:04:05.656Z,85.60
2017-09-21T04:06:33.198Z,85.70
2017-09-21T04:09:01.459Z,86.10
2017-09-21T04:11:28.969Z,85.30
2017-09-21T04:13:56.530Z,85.00
2017-09-21T04:16:24.050Z,85.20
2017-09-21T04:18:51.598Z,85.70
2017-09-21T04:21:19.114Z,85.60
2017-09-21T04:23:46.624Z,86.10
2017-09-21T04:26:14.156Z,86.40
2017-09-21T04:28:42.427Z,86.20
2017-09-21T04:31:09.944Z,86.20
2017-09-21T04:33:37.487Z,87.70
2017-09-21T04:36:04.994Z,86.60
2017-09-21T04:38:32.535Z,86.80
2017-09-21T04:41:00.026Z,87.00
2017-09-21T04:43:27.526Z,87.90
2017-09-21T04:45:55.037Z,88.10
2017-09-21T04:48:22.526Z,87.50
2017-09-21T04:50:50.013Z,87.80
2017-09-21T04:53:17.525Z,87.40
2017-09-21T04:55:45.019Z,87.60
2017-09-21T04:58:12.560Z,87.50
2017-09-21T05:00:41.318Z,86.80
2017-09-21T05:03:09.111Z,86.70
2017-09-21T05:05:37.411Z,86.80
2017-09-21T05:08:04.919Z,86.80
2017-09-21T05:10:32.414Z,86.80
2017-09-21T05:12:59.926Z,86.90
2017-09-21T05:15:27.425Z,87.10
2017-09-21T05:17:55.678Z,86.90
2017-09-21T05:20:23.193Z,86.90
2017-09-21T05:22:50.685Z,86.10
2017-09-21T05:25:18.174Z,86.60
2017-09-21T05:27:46.449Z,86.70
2017-09-21T05:30:14.261Z,86.70
2017-09-21T05:32:42.534Z,86.70
2017-09-21T05:35:10.046Z,86.70
2017-09-21T05:37:38.301Z,86.60
2017-09-21T05:40:05.794Z,86.50
2017-09-21T05:42:33.554Z,86.50
2017-09-21T05:45:01.046Z,86.30
2017-09-21T05:47:28.576Z,86.90
2017-09-21T05:49:56.094Z,85.50
2017-09-21T05:52:23.595Z,85.70
2017-09-21T05:54:51.127Z,85.60
2017-09-21T05:57:18.694Z,85.60
2017-09-21T05:59:46.963Z,85.60
2017-09-21T06:02:15.237Z,86.40
2017-09-21T06:04:42.725Z,85.60
2017-09-21T06:07:10.706Z,85.70
2017-09-21T06:09:38.239Z,85.10
2017-09-21T06:12:06.518Z,85.20
2017-09-21T06:14:34.813Z,85.00
2017-09-21T06:17:02.314Z,84.90
2017-09-21T06:19:29.814Z,84.80
2017-09-21T06:21:57.330Z,84.70
2017-09-21T06:24:24.821Z,84.70
2017-09-21T06:26:53.069Z,83.90
2017-09-21T06:29:20.579Z,83.70
2017-09-21T06:31:48.073Z,83.50
2017-09-21T06:34:15.585Z,83.60
2017-09-21T06:36:43.073Z,83.70
2017-09-21T06:39:10.556Z,83.50
2017-09-21T06:41:38.065Z,84.60
2017-09-21T06:44:05.549Z,83.40
2017-09-21T06:46:33.033Z,83.20
2017-09-21T06:49:00.537Z,83.10
2017-09-21T06:51:28.025Z,83.10
2017-09-21T06:53:55.538Z,83.00
2017-09-21T06:56:23.794Z,82.30
2017-09-21T06:58:51.282Z,82.30
2017-09-21T07:01:18.810Z,82.10
2017-09-21T07:03:46.298Z,81.80
2017-09-21T07:06:13.785Z,81.60
2017-09-21T07:08:41.297Z,81.70
2017-09-21T07:11:09.556Z,81.00
2017-09-21T07:13:37.070Z,81.00
2017-09-21T07:16:04.557Z,80.60
2017-09-21T07:18:32.089Z,80.80
2017-09-21T07:20:59.634Z,81.70
2017-09-21T07:23:27.154Z,81.30
2017-09-21T07:25:54.685Z,80.50
2017-09-21T07:28:22.178Z,80.80
2017-09-21T07:30:50.438Z,79.80
2017-09-21T07:33:17.950Z,79.80
2017-09-21T07:35:45.442Z,79.40
2017-09-21T07:38:12.977Z,79.60
2017-09-21T07:40:40.475Z,79.00
2017-09-21T07:43:07.975Z,79.00
2017-09-21T07:45:35.498Z,79.30
2017-09-21T07:48:02.991Z,79.40
2017-09-21T07:50:30.489Z,79.80
2017-09-21T07:52:58.002Z,80.00
2017-09-21T07:55:25.553Z,79.70
2017-09-21T07:57:53.805Z,79.70
2017-09-21T08:00:21.317Z,79.60
2017-09-21T08:02:48.810Z,80.20
2017-09-21T08:05:16.329Z,79.20
2017-09-21T08:07:43.821Z,79.20
2017-09-21T08:10:11.310Z,78.90
2017-09-21T08:12:39.590Z,77.20
2017-09-21T08:15:07.844Z,77.10
2017-09-21T08:17:35.334Z,77.00
2017-09-21T08:20:02.846Z,76.30
2017-09-21T08:22:30.337Z,76.00
2017-09-21T08:24:58.615Z,75.50
2017-09-21T08:27:26.865Z,75.50
2017-09-21T08:29:54.358Z,75.40
2017-09-21T08:32:22.641Z,75.90
2017-09-21T08:34:50.141Z,75.90
2017-09-21T08:37:17.637Z,75.40
2017-09-21T08:39:45.152Z,74.90
2017-09-21T08:42:12.650Z,74.10
2017-09-21T08:44:40.926Z,73.20
2017-09-21T08:47:08.417Z,73.10
2017-09-21T08:49:35.926Z,73.40
2017-09-21T08:52:03.433Z,74.20
2017-09-21T08:54:30.925Z,74.30
2017-09-21T08:56:58.418Z,74.30
2017-09-21T08:59:26.697Z,74.70
2017-09-21T09:01:54.952Z,74.90
2017-09-21T09:04:22.485Z,74.80
2017-09-21T09:06:49.973Z,74.80
2017-09-21T09:09:17.466Z,75.40
2017-09-21T09:11:44.981Z,74.30
2017-09-21T09:14:12.478Z,74.60
2017-09-21T09:16:39.970Z,74.70
2017-09-21T09:19:07.481Z,75.30
2017-09-21T09:21:35.737Z,76.20
2017-09-21T09:24:03.258Z,76.20
2017-09-21T09:26:30.749Z,76.70
2017-09-21T09:28:58.236Z,75.60
2017-09-21T09:31:25.752Z,75.20
2017-09-21T09:33:53.249Z,74.70
2017-09-21T09:36:20.741Z,75.40
2017-09-21T09:38:48.249Z,74.60
2017-09-21T09:41:15.745Z,75.10
2017-09-21T09:43:44.029Z,74.00
2017-09-21T09:46:11.522Z,74.00
2017-09-21T09:48:39.015Z,73.30
2017-09-21T09:51:07.298Z,71.40
2017-09-21T09:53:35.558Z,71.30
2017-09-21T09:56:03.050Z,71.20
2017-09-21T09:58:30.566Z,68.90
2017-09-21T10:00:58.058Z,67.00
2017-09-21T10:03:26.338Z,55.70
2017-09-21T10:05:53.833Z,55.60
2017-09-21T10:08:21.338Z,53.90
2017-09-21T10:10:49.618Z,52.20
2017-09-21T10:13:17.874Z,52.40
2017-09-21T10:15:45.389Z,52.30
2017-09-21T10:18:12.890Z,51.70
2017-09-21T10:20:40.381Z,47.70
2017-09-21T10:23:07.892Z,44.40
2017-09-21T10:25:35.449Z,40.60
2017-09-21T10:28:02.937Z,36.80
2017-09-21T10:30:31.213Z,31.00
2017-09-21T10:32:59.470Z,30.30
2017-09-21T10:35:26.961Z,30.30
2017-09-21T10:37:54.468Z,29.40
2017-09-21T10:40:21.966Z,27.60
2017-09-21T10:42:49.479Z,26.30
2017-09-21T10:45:16.970Z,25.30
2017-09-21T10:47:45.233Z,24.20
2017-09-21T10:50:12.748Z,24.10
2017-09-21T10:52:40.237Z,23.10
2017-09-21T10:55:07.745Z,22.00
2017-09-21T10:57:35.237Z,21.60
2017-09-21T11:00:02.730Z,22.00
2017-09-21T11:02:30.245Z,21.30
2017-09-21T11:04:57.730Z,20.60
2017-09-21T11:07:25.218Z,20.30
2017-09-21T11:09:53.502Z,20.30
2017-09-21T11:12:21.759Z,20.20
2017-09-21T11:14:49.273Z,20.10
2017-09-21T11:17:16.757Z,20.10
2017-09-21T11:19:44.250Z,19.60
2017-09-21T11:22:12.529Z,20.00
2017-09-21T11:24:40.780Z,21.30
2017-09-21T11:27:08.266Z,21.30
2017-09-21T11:29:36.541Z,24.30
2017-09-21T11:32:04.029Z,24.30
2017-09-21T11:34:31.558Z,26.30
2017-09-21T11:36:59.814Z,28.40
2017-09-21T11:39:27.305Z,28.40
2017-09-21T11:41:54.818Z,29.10
2017-09-21T11:44:22.317Z,29.00
2017-09-21T11:46:49.813Z,28.90
2017-09-21T11:49:17.325Z,28.60
2017-09-21T11:51:45.581Z,26.80
2017-09-21T11:54:13.870Z,26.70
2017-09-21T11:56:42.129Z,25.50
2017-09-21T11:59:09.625Z,25.50
2017-09-21T12:01:37.137Z,24.40
2017-09-21T12:04:04.641Z,24.00
2017-09-21T12:06:32.134Z,24.40
2017-09-21T12:08:59.649Z,23.40
2017-09-21T12:11:27.145Z,23.70
2017-09-21T12:13:54.657Z,23.50
2017-09-21T12:16:22.914Z,23.00
2017-09-21T12:18:50.401Z,23.00
2017-09-21T12:21:17.910Z,22.00
2017-09-21T12:23:45.394Z,23.40
2017-09-21T12:26:13.649Z,25.50
2017-09-21T12:28:41.154Z,25.00
2017-09-21T12:31:08.650Z,26.40
2017-09-21T12:33:36.157Z,27.50
2017-09-21T12:36:04.405Z,25.90
2017-09-21T12:38:31.894Z,25.90
2017-09-21T12:41:00.173Z,27.30
2017-09-21T12:43:28.423Z,28.10
2017-09-21T12:45:55.916Z,28.10
2017-09-21T12:48:23.426Z,27.30
2017-09-21T12:50:50.918Z,27.70
2017-09-21T12:53:19.202Z,27.10
2017-09-21T12:55:46.689Z,27.10
2017-09-21T12:58:14.173Z,25.90
2017-09-21T13:00:41.683Z,25.40
2017-09-21T13:03:09.169Z,24.60
2017-09-21T13:05:36.652Z,22.70
2017-09-21T13:08:04.183Z,21.60
2017-09-21T13:10:31.678Z,20.70
2017-09-21T13:12:59.190Z,20.20
2017-09-21T13:15:26.682Z,21.60
2017-09-21T13:17:54.170Z,21.60
2017-09-21T13:20:22.446Z,22.90
2017-09-21T13:22:50.698Z,21.50
2017-09-21T13:25:18.183Z,21.50
2017-09-21T13:27:46.466Z,23.60
2017-09-21T13:30:14.713Z,23.30
2017-09-21T13:32:42.214Z,23.20
2017-09-21T13:35:09.706Z,23.30
2017-09-21T13:37:37.197Z,23.70
2017-09-21T13:40:05.469Z,24.50
2017-09-21T13:42:32.949Z,24.10
2017-09-21T13:45:01.193Z,26.10
2017-09-21T13:47:28.697Z,26.10
2017-09-21T13:49:56.182Z,26.60
2017-09-21T13:52:23.684Z,26.30
2017-09-21T13:54:51.938Z,27.20
2017-09-21T13:57:19.420Z,27.10
2017-09-21T13:59:47.694Z,29.00
2017-09-21T14:02:15.951Z,28.00
2017-09-21T14:04:43.442Z,27.90
2017-09-21T14:07:11.709Z,29.30
2017-09-21T14:09:39.953Z,28.60
2017-09-21T14:12:07.456Z,28.60
2017-09-21T14:14:35.792Z,29.10
2017-09-21T14:17:03.273Z,29.40
2017-09-21T14:19:31.549Z,30.10
2017-09-21T14:21:59.843Z,31.00
2017-09-21T14:24:28.084Z,30.20
2017-09-21T14:26:55.590Z,29.90
2017-09-21T14:29:23.089Z,30.00
2017-09-21T14:31:50.577Z,29.70
2017-09-21T14:34:18.853Z,29.80
2017-09-21T14:36:47.098Z,29.20
2017-09-21T14:39:14.610Z,28.70
2017-09-21T14:41:42.094Z,29.10
2017-09-21T14:44:09.589Z,28.50
2017-09-21T14:46:37.088Z,28.80
2017-09-21T14:49:04.569Z,29.30
2017-09-21T14:51:32.057Z,29.10
2017-09-21T14:53:59.557Z,29.00
2017-09-21T14:56:27.503Z,29.00
2017-09-21T14:58:55.822Z,29.00
2017-09-21T15:01:23.314Z,29.10
2017-09-21T15:03:50.801Z,29.80
2017-09-21T15:06:19.073Z,29.70
2017-09-21T15:08:47.325Z,30.00
2017-09-21T15:11:14.810Z,30.00
2017-09-21T15:13:43.077Z,30.60
2017-09-21T15:16:10.562Z,30.60
2017-09-21T15:18:38.069Z,30.00
2017-09-21T15:21:05.565Z,29.80
2017-09-21T15:23:33.814Z,30.20
2017-09-21T15:26:01.322Z,30.10
2017-09-21T15:28:28.805Z,30.80
2017-09-21T15:30:56.289Z,30.50
2017-09-21T15:33:23.801Z,31.20
2017-09-21T15:35:51.282Z,31.30
2017-09-21T15:38:18.770Z,31.10
2017-09-21T15:40:46.277Z,31.20
2017-09-21T15:43:13.774Z,32.10
2017-09-21T15:45:41.262Z,31.60
2017-09-21T15:48:09.529Z,32.60
2017-09-21T15:50:37.793Z,32.50
2017-09-21T15:53:05.306Z,32.50
2017-09-21T15:55:32.809Z,32.60
2017-09-21T15:58:00.318Z,32.20
2017-09-21T16:00:27.829Z,31.80
2017-09-21T16:02:55.312Z,32.50
2017-09-21T16:05:23.565Z,32.70
2017-09-21T16:07:51.074Z,32.70
2017-09-21T16:10:18.579Z,32.80
2017-09-21T16:12:46.089Z,33.80
2017-09-21T16:15:13.596Z,33.40
2017-09-21T16:17:41.077Z,33.60
2017-09-21T16:20:09.345Z,33.90
2017-09-21T16:22:37.589Z,34.80
2017-09-21T16:25:05.069Z,34.80
2017-09-21T16:27:32.568Z,35.20
2017-09-21T16:30:00.058Z,35.70
2017-09-21T16:32:27.565Z,35.40
2017-09-21T16:34:55.812Z,36.90
2017-09-21T16:37:23.297Z,36.90
2017-09-21T16:39:51.577Z,36.50
2017-09-21T16:42:19.838Z,36.40
2017-09-21T16:44:48.094Z,36.70
2017-09-21T16:47:15.610Z,36.70
2017-09-21T16:49:43.102Z,37.00
2017-09-21T16:52:10.614Z,36.90
2017-09-21T16:54:38.178Z,37.00
2017-09-21T16:57:06.442Z,37.60
2017-09-21T16:59:33.954Z,37.50
2017-09-21T17:02:01.480Z,37.90
2017-09-21T17:04:29.746Z,38.20
2017-09-21T17:06:57.283Z,38.20
2017-09-21T17:09:24.779Z,38.80
2017-09-21T17:11:52.302Z,38.90
2017-09-21T17:14:19.802Z,39.30
2017-09-21T17:16:47.318Z,39.50
2017-09-21T17:19:14.845Z,39.70
2017-09-21T17:21:42.349Z,40.00
2017-09-21T17:24:09.846Z,40.30
2017-09-21T17:26:37.362Z,40.80
2017-09-21T17:29:04.850Z,40.90
2017-09-21T17:31:33.442Z,41.90
2017-09-21T17:34:00.938Z,41.90
2017-09-21T17:36:28.420Z,42.20
2017-09-21T17:38:55.926Z,42.80
2017-09-21T17:41:23.418Z,43.20
2017-09-21T17:43:50.908Z,43.60
2017-09-21T17:46:18.417Z,44.00
2017-09-21T17:48:45.911Z,44.50
2017-09-21T17:51:13.422Z,45.10
2017-09-21T17:53:40.938Z,45.70
2017-09-21T17:56:08.425Z,46.20
2017-09-21T17:58:35.967Z,46.80
2017-09-21T18:01:03.450Z,47.20
2017-09-21T18:03:30.941Z,47.30
2017-09-21T18:05:58.453Z,48.30
2017-09-21T18:08:26.705Z,49.20
2017-09-21T18:10:54.218Z,49.20
2017-09-21T18:13:21.702Z,49.50
2017-09-21T18:15:49.190Z,49.70
2017-09-21T18:18:17.468Z,50.40
2017-09-21T18:20:45.721Z,50.70
2017-09-21T18:23:13.209Z,50.70
2017-09-21T18:25:41.489Z,51.40
2017-09-21T18:28:08.976Z,51.40
2017-09-21T18:30:36.513Z,51.60
2017-09-21T18:33:03.998Z,51.70
2017-09-21T18:35:31.485Z,51.80
2017-09-21T18:37:58.994Z,52.00
2017-09-21T18:40:26.490Z,52.40
2017-09-21T18:42:53.982Z,52.70
2017-09-21T18:45:22.258Z,53.10
2017-09-21T18:47:50.517Z,53.40
2017-09-21T18:50:18.032Z,53.30
2017-09-21T18:52:45.526Z,53.80
2017-09-21T18:55:13.020Z,53.90
2017-09-21T18:57:41.302Z,54.30
2017-09-21T19:00:08.797Z,54.30
2017-09-21T19:02:36.285Z,54.40
2017-09-21T19:05:03.809Z,54.60
2017-09-21T19:07:31.300Z,54.80
2017-09-21T19:09:58.818Z,54.90
2017-09-21T19:12:26.317Z,54.80
2017-09-21T19:14:53.806Z,55.20
2017-09-21T19:17:22.081Z,55.30
2017-09-21T19:19:50.341Z,55.40
2017-09-21T19:22:18.603Z,55.70
2017-09-21T19:24:46.121Z,55.50
2017-09-21T19:27:13.610Z,55.60
2017-09-21T19:29:41.101Z,55.90
2017-09-21T19:32:09.382Z,56.70
2017-09-21T19:34:37.638Z,57.00
2017-09-21T19:37:05.135Z,56.90
2017-09-21T19:39:32.641Z,57.20
2017-09-21T19:42:00.150Z,57.50
2017-09-21T19:44:27.661Z,57.40
2017-09-21T19:46:55.154Z,57.70
2017-09-21T19:49:22.669Z,57.90
2017-09-21T19:51:50.157Z,58.50
2017-09-21T19:54:18.421Z,58.70
2017-09-21T19:56:45.934Z,58.60
2017-09-21T19:59:13.427Z,59.00
2017-09-21T20:01:40.950Z,59.00
2017-09-21T20:04:08.441Z,59.20
2017-09-21T20:06:35.933Z,59.20
2017-09-21T20:09:04.213Z,59.30
2017-09-21T20:11:32.465Z,59.50
2017-09-21T20:13:59.954Z,59.50
2017-09-21T20:16:27.902Z,59.50
2017-09-21T20:18:56.165Z,59.80
2017-09-21T20:21:23.677Z,59.70
2017-09-21T20:23:51.174Z,60.50
2017-09-21T20:26:20.193Z,60.40
2017-09-21T20:28:48.457Z,60.50
2017-09-21T20:31:16.742Z,60.70
2017-09-21T20:33:44.997Z,61.00
2017-09-21T20:36:12.515Z,60.90
2017-09-21T20:38:40.001Z,61.00
2017-09-21T20:41:07.514Z,61.50
2017-09-21T20:43:35.010Z,61.80
2017-09-21T20:46:02.506Z,62.00
2017-09-21T20:48:30.786Z,62.50
2017-09-21T20:50:59.050Z,62.60
2017-09-21T20:53:26.561Z,62.50
2017-09-21T20:55:54.049Z,63.60
2017-09-21T20:58:21.575Z,63.00
2017-09-21T21:00:49.064Z,63.10
2017-09-21T21:03:16.578Z,63.30
2017-09-21T21:05:44.074Z,63.40
2017-09-21T21:08:11.592Z,63.80
2017-09-21T21:10:39.085Z,63.90
2017-09-21T21:13:06.598Z,63.90
2017-09-21T21:15:34.098Z,64.30
2017-09-21T21:18:01.614Z,64.50
2017-09-21T21:20:29.871Z,64.50
2017-09-21T21:22:58.152Z,65.50
2017-09-21T21:25:26.409Z,65.10
2017-09-21T21:27:53.925Z,65.00
2017-09-21T21:30:21.418Z,65.10
2017-09-21T21:32:48.933Z,65.30
2017-09-21T21:35:16.425Z,65.30
2017-09-21T21:37:43.938Z,65.30
2017-09-21T21:40:11.436Z,65.60
2017-09-21T21:42:39.725Z,66.20
2017-09-21T21:45:07.222Z,66.10
2017-09-21T21:47:35.494Z,66.20
2017-09-21T21:50:03.749Z,66.30
2017-09-21T21:52:31.269Z,66.20
2017-09-21T21:54:58.758Z,66.40
2017-09-21T21:57:26.274Z,66.60
2017-09-21T21:59:53.769Z,66.60
2017-09-21T22:02:21.293Z,66.50
2017-09-21T22:04:48.793Z,66.80
2017-09-21T22:07:16.309Z,67.40
2017-09-21T22:09:43.802Z,67.70
2017-09-21T22:12:11.322Z,67.60
2017-09-21T22:14:38.817Z,67.60
2017-09-21T22:17:06.326Z,67.60
2017-09-21T22:19:33.825Z,67.80
2017-09-21T22:22:01.333Z,68.10
2017-09-21T22:24:29.593Z,68.10
2017-09-21T22:26:57.125Z,68.10
2017-09-21T22:29:24.617Z,68.00
2017-09-21T22:31:52.897Z,67.80
2017-09-21T22:34:20.421Z,67.80
2017-09-21T22:36:47.934Z,67.80
2017-09-21T22:39:15.425Z,67.70
2017-09-21T22:41:42.941Z,67.90
2017-09-21T22:44:10.434Z,68.30
2017-09-21T22:46:37.945Z,68.50
2017-09-21T22:49:06.208Z,69.00
2017-09-21T22:51:34.490Z,68.90
2017-09-21T22:54:02.750Z,69.00
2017-09-21T22:56:30.261Z,68.90
2017-09-21T22:58:57.750Z,69.10
2017-09-21T23:01:25.262Z,69.00
2017-09-21T23:03:52.754Z,69.30
2017-09-21T23:06:20.265Z,69.30
2017-09-21T23:08:47.797Z,69.10
2017-09-21T23:11:15.309Z,69.20
2017-09-21T23:13:42.803Z,69.20
2017-09-21T23:16:10.418Z,69.10
2017-09-21T23:18:37.932Z,69.10
2017-09-21T23:21:05.469Z,69.00
2017-09-21T23:23:32.965Z,68.90
2017-09-21T23:26:00.485Z,68.70
2017-09-21T23:28:27.982Z,68.70
2017-09-21T23:30:56.282Z,68.80
2017-09-21T23:33:23.779Z,68.80
2017-09-21T23:35:51.294Z,68.90
2017-09-21T23:38:19.559Z,69.40
2017-09-21T23:40:47.078Z,69.30
2017-09-21T23:43:15.338Z,69.80
2017-09-21T23:45:42.859Z,69.80
2017-09-21T23:48:10.390Z,69.70
2017-09-21T23:50:37.902Z,69.80
2017-09-21T23:53:05.430Z,70.00
2017-09-21T23:55:33.714Z,70.10
2017-09-21T23:58:01.978Z,70.40
